createdAt,value
2023-05-05T00:01:01.073Z,15.35
2023-05-05T00:03:28.104Z,15.29
2023-05-05T00:05:55.416Z,15.26
2023-05-05T00:08:22.884Z,15.25
2023-05-05T00:10:51.571Z,15.26
2023-05-05T00:13:19.536Z,15.21
2023-05-05T00:15:47.807Z,15.21
2023-05-05T00:18:16.631Z,15.16
2023-05-05T00:20:44.376Z,15.13
2023-05-05T00:23:11.041Z,15.12
2023-05-05T00:25:37.948Z,15.11
2023-05-05T00:28:04.843Z,15.11
2023-05-05T00:30:31.860Z,15.03
2023-05-05T00:32:58.488Z,15.04
2023-05-05T00:35:25.157Z,14.98
2023-05-05T00:37:51.810Z,15.00
2023-05-05T00:40:18.881Z,14.99
2023-05-05T00:42:47.403Z,14.96
2023-05-05T00:45:15.492Z,14.96
2023-05-05T00:47:43.684Z,14.92
2023-05-05T00:50:14.553Z,14.87
2023-05-05T00:52:41.238Z,14.89
2023-05-05T00:55:08.322Z,14.90
2023-05-05T00:57:35.726Z,14.86
2023-05-05T01:00:02.968Z,14.86
2023-05-05T01:02:31.293Z,14.84
2023-05-05T01:04:58.565Z,14.76
2023-05-05T01:07:43.488Z,14.78
2023-05-05T01:10:20.748Z,14.75
2023-05-05T01:13:22.544Z,14.73
2023-05-05T01:16:01.083Z,14.73
2023-05-05T01:18:41.674Z,14.67
2023-05-05T01:21:18.597Z,14.68
2023-05-05T01:23:57.125Z,14.63
2023-05-05T01:26:42.788Z,14.57
2023-05-05T01:29:41.510Z,14.52
2023-05-05T01:32:11.477Z,14.50
2023-05-05T01:35:08.894Z,14.52
2023-05-05T01:37:47.730Z,14.53
2023-05-05T01:40:18.315Z,14.50
2023-05-05T01:42:45.280Z,14.44
2023-05-05T01:45:14.705Z,14.39
2023-05-05T01:47:44.093Z,14.36
2023-05-05T01:50:12.503Z,14.36
2023-05-05T01:52:41.158Z,14.33
2023-05-05T01:55:09.939Z,14.32
2023-05-05T01:57:39.147Z,14.30
2023-05-05T02:00:07.408Z,14.31
2023-05-05T02:02:36.151Z,14.27
2023-05-05T02:05:04.510Z,14.29
2023-05-05T02:07:34.302Z,14.26
2023-05-05T02:10:03.221Z,14.25
2023-05-05T02:12:31.695Z,14.27
2023-05-05T02:15:01.594Z,14.28
2023-05-05T02:17:30.094Z,14.26
2023-05-05T02:19:59.071Z,14.25
2023-05-05T02:22:25.697Z,14.23
2023-05-05T02:24:52.624Z,14.21
2023-05-05T02:27:21.786Z,14.18
2023-05-05T02:29:57.263Z,14.17
2023-05-05T02:32:31.756Z,14.13
2023-05-05T02:35:01.780Z,14.12
2023-05-05T02:37:31.739Z,14.16
2023-05-05T02:40:02.810Z,14.16
2023-05-05T02:42:35.063Z,14.15
2023-05-05T02:45:08.037Z,14.15
2023-05-05T02:47:36.630Z,14.16
2023-05-05T02:50:08.428Z,14.14
2023-05-05T02:52:36.104Z,14.09
2023-05-05T02:55:05.587Z,14.03
2023-05-05T02:57:44.888Z,14.06
2023-05-05T03:00:20.878Z,14.07
2023-05-05T03:03:06.939Z,14.07
2023-05-05T03:05:45.890Z,14.08
2023-05-05T03:08:30.129Z,14.05
2023-05-05T03:11:08.109Z,14.00
2023-05-05T03:13:37.251Z,13.99
2023-05-05T03:16:06.978Z,14.00
2023-05-05T03:18:40.788Z,14.02
2023-05-05T03:21:10.329Z,14.01
2023-05-05T03:23:37.225Z,13.99
2023-05-05T03:26:03.933Z,13.98
2023-05-05T03:28:31.571Z,13.95
2023-05-05T03:30:58.148Z,13.91
2023-05-05T03:33:27.723Z,13.90
2023-05-05T03:35:54.399Z,13.94
2023-05-05T03:38:20.983Z,13.89
2023-05-05T03:40:47.603Z,13.82
2023-05-05T03:43:14.361Z,13.84
2023-05-05T03:45:41.086Z,13.86
2023-05-05T03:48:09.730Z,13.91
2023-05-05T03:50:36.745Z,13.91
2023-05-05T03:53:03.481Z,13.90
2023-05-05T03:55:30.118Z,13.93
2023-05-05T03:57:56.758Z,13.90
2023-05-05T04:00:23.497Z,13.89
2023-05-05T04:02:50.220Z,13.85
2023-05-05T04:05:17.033Z,13.89
2023-05-05T04:07:43.614Z,13.91
2023-05-05T04:10:13.321Z,13.93
2023-05-05T04:12:39.981Z,13.96
2023-05-05T04:15:07.080Z,13.98
2023-05-05T04:17:36.499Z,13.86
2023-05-05T04:20:03.469Z,13.66
2023-05-05T04:22:32.839Z,13.51
2023-05-05T04:24:59.508Z,13.37
2023-05-05T04:27:26.386Z,13.23
2023-05-05T04:29:53.011Z,12.91
2023-05-05T04:32:19.698Z,12.71
2023-05-05T04:34:46.916Z,12.48
2023-05-05T04:37:13.813Z,12.31
2023-05-05T04:39:41.533Z,12.22
2023-05-05T04:42:09.053Z,12.06
2023-05-05T04:44:35.872Z,12.08
2023-05-05T04:47:02.680Z,11.99
2023-05-05T04:49:30.383Z,11.90
2023-05-05T04:51:57.605Z,11.86
2023-05-05T04:54:24.191Z,11.76
2023-05-05T04:56:51.004Z,11.70
2023-05-05T04:59:17.673Z,11.62
2023-05-05T05:01:44.811Z,11.63
2023-05-05T05:04:11.519Z,11.54
2023-05-05T05:06:38.143Z,11.64
2023-05-05T05:09:04.797Z,11.57
2023-05-05T05:11:31.493Z,11.57
2023-05-05T05:13:58.069Z,11.62
2023-05-05T05:16:25.207Z,11.65
2023-05-05T05:18:51.919Z,11.59
2023-05-05T05:21:18.507Z,11.58
2023-05-05T05:23:45.093Z,11.58
2023-05-05T05:26:11.799Z,11.62
2023-05-05T05:28:41.129Z,11.57
2023-05-05T05:31:07.874Z,11.67
2023-05-05T05:33:34.491Z,11.82
2023-05-05T05:36:01.051Z,11.90
2023-05-05T05:38:27.621Z,12.09
2023-05-05T05:40:54.641Z,12.33
2023-05-05T05:43:21.383Z,12.55
2023-05-05T05:45:48.125Z,12.80
2023-05-05T05:48:14.791Z,13.04
2023-05-05T05:50:41.722Z,13.28
2023-05-05T05:53:08.367Z,13.54
2023-05-05T05:55:35.356Z,13.78
2023-05-05T05:58:01.916Z,14.01
2023-05-05T06:00:28.562Z,14.25
2023-05-05T06:02:55.247Z,14.52
2023-05-05T06:05:21.826Z,14.81
2023-05-05T06:07:48.398Z,15.04
2023-05-05T06:10:25.645Z,15.34
2023-05-05T06:12:53.883Z,15.57
2023-05-05T06:15:20.871Z,15.83
2023-05-05T06:17:47.650Z,16.08
2023-05-05T06:20:14.241Z,16.36
2023-05-05T06:22:40.918Z,16.66
2023-05-05T06:25:07.851Z,16.91
2023-05-05T06:27:34.769Z,17.17
2023-05-05T06:30:01.396Z,17.42
2023-05-05T06:32:28.038Z,17.72
2023-05-05T06:34:54.699Z,17.97
2023-05-05T06:37:21.405Z,18.21
2023-05-05T06:39:48.012Z,18.48
2023-05-05T06:42:14.604Z,18.68
2023-05-05T06:44:41.572Z,18.86
2023-05-05T06:47:08.173Z,18.99
2023-05-05T06:49:34.801Z,19.21
2023-05-05T06:52:01.696Z,19.48
2023-05-05T06:54:28.289Z,19.70
2023-05-05T06:56:54.842Z,19.92
2023-05-05T06:59:21.563Z,20.12
2023-05-05T07:01:48.204Z,20.36
2023-05-05T07:04:14.914Z,20.60
2023-05-05T07:06:41.610Z,20.81
2023-05-05T07:09:08.375Z,21.03
2023-05-05T07:11:35.192Z,21.23
2023-05-05T07:14:02.292Z,21.36
2023-05-05T07:16:28.989Z,21.50
2023-05-05T07:18:55.625Z,21.67
2023-05-05T07:21:24.381Z,21.87
2023-05-05T07:23:50.935Z,22.08
2023-05-05T07:26:17.618Z,22.17
2023-05-05T07:28:44.778Z,22.32
2023-05-05T07:31:11.384Z,22.50
2023-05-05T07:33:38.036Z,22.62
2023-05-05T07:36:05.097Z,22.77
2023-05-05T07:38:32.061Z,22.94
2023-05-05T07:40:58.700Z,23.02
2023-05-05T07:43:25.812Z,23.15
2023-05-05T07:45:52.499Z,23.26
2023-05-05T07:48:19.215Z,23.39
2023-05-05T07:50:46.020Z,23.57
2023-05-05T07:53:14.743Z,23.76
2023-05-05T07:55:42.165Z,23.87
2023-05-05T07:58:12.638Z,23.99
2023-05-05T08:00:39.895Z,24.12
2023-05-05T08:03:08.939Z,24.24
2023-05-05T08:05:38.492Z,24.34
2023-05-05T08:08:06.192Z,24.49
2023-05-05T08:10:32.784Z,24.52
2023-05-05T08:12:59.476Z,24.48
2023-05-05T08:15:26.174Z,24.46
2023-05-05T08:17:56.093Z,24.41
2023-05-05T08:20:23.123Z,24.42
2023-05-05T08:22:49.772Z,24.45
2023-05-05T08:25:16.351Z,24.39
2023-05-05T08:27:43.354Z,24.44
2023-05-05T08:30:10.844Z,24.47
2023-05-05T08:32:38.539Z,24.38
2023-05-05T08:35:06.565Z,24.31
2023-05-05T08:37:33.550Z,24.19
2023-05-05T08:40:00.407Z,24.14
2023-05-05T08:42:37.273Z,23.99
2023-05-05T08:45:07.768Z,23.82
2023-05-05T08:47:36.833Z,23.79
2023-05-05T08:50:05.710Z,23.82
2023-05-05T08:52:44.680Z,23.74
2023-05-05T08:55:27.330Z,23.65
2023-05-05T08:57:58.478Z,23.61
2023-05-05T09:00:27.263Z,23.66
2023-05-05T09:02:57.573Z,23.67
2023-05-05T09:05:25.030Z,23.74
2023-05-05T09:07:51.684Z,23.64
2023-05-05T09:10:18.867Z,23.56
2023-05-05T09:12:45.646Z,23.56
2023-05-05T09:15:14.428Z,23.48
2023-05-05T09:17:41.869Z,23.41
2023-05-05T09:20:10.589Z,23.46
2023-05-05T09:22:42.028Z,23.42
2023-05-05T09:25:14.030Z,23.36
2023-05-05T09:27:50.490Z,23.43
2023-05-05T09:30:25.645Z,23.47
2023-05-05T09:32:56.546Z,23.50
2023-05-05T09:35:23.646Z,23.52
2023-05-05T09:37:50.361Z,23.50
2023-05-05T09:40:19.154Z,23.51
2023-05-05T09:42:46.317Z,23.50
2023-05-05T09:45:19.074Z,23.49
2023-05-05T09:47:49.335Z,23.45
2023-05-05T09:50:20.615Z,23.42
2023-05-05T09:53:03.616Z,23.46
2023-05-05T09:55:33.489Z,23.45
2023-05-05T09:58:26.495Z,23.43
2023-05-05T10:00:54.801Z,23.41
2023-05-05T10:03:21.789Z,23.44
2023-05-05T10:05:50.556Z,23.45
2023-05-05T10:08:19.648Z,23.46
2023-05-05T10:10:59.606Z,23.45
2023-05-05T10:13:27.185Z,23.44
2023-05-05T10:15:55.842Z,23.49
2023-05-05T10:18:27.154Z,23.45
2023-05-05T10:20:58.470Z,23.47
2023-05-05T10:23:49.480Z,23.49
2023-05-05T10:26:19.960Z,23.49
2023-05-05T10:28:56.923Z,23.54
2023-05-05T10:31:32.979Z,23.55
2023-05-05T10:34:21.464Z,23.57
2023-05-05T10:36:49.812Z,23.58
2023-05-05T10:39:19.847Z,23.62
2023-05-05T10:41:48.259Z,23.62
2023-05-05T10:44:15.635Z,23.53
2023-05-05T10:46:44.291Z,23.58
2023-05-05T10:49:29.016Z,23.58
2023-05-05T10:52:02.114Z,23.62
2023-05-05T10:54:32.695Z,23.65
2023-05-05T10:57:02.624Z,23.69
2023-05-05T10:59:38.860Z,23.64
2023-05-05T11:02:26.790Z,23.66
2023-05-05T11:05:10.471Z,23.68
2023-05-05T11:07:39.822Z,23.71
2023-05-05T11:10:11.610Z,23.75
2023-05-05T11:13:10.638Z,23.70
2023-05-05T11:15:38.048Z,23.71
2023-05-05T11:18:07.928Z,23.75
2023-05-05T11:20:39.780Z,23.77
2023-05-05T11:23:06.663Z,23.83
2023-05-05T11:25:41.050Z,23.85
2023-05-05T11:28:16.761Z,23.84
2023-05-05T11:30:56.011Z,23.85
2023-05-05T11:33:33.648Z,23.80
2023-05-05T11:36:03.408Z,23.73
2023-05-05T11:39:11.448Z,23.74
2023-05-05T11:41:47.390Z,23.73
2023-05-05T11:44:21.194Z,23.74
2023-05-05T11:46:54.308Z,23.82
2023-05-05T11:49:37.487Z,23.87
2023-05-05T11:52:04.981Z,23.87
2023-05-05T11:54:34.611Z,23.88
2023-05-05T11:57:05.135Z,23.84
2023-05-05T11:59:33.309Z,23.87
2023-05-05T12:02:03.361Z,23.89
2023-05-05T12:04:34.298Z,23.87
2023-05-05T12:07:01.099Z,23.88
2023-05-05T12:09:27.864Z,23.88
2023-05-05T12:11:59.820Z,23.91
2023-05-05T12:14:30.042Z,23.93
2023-05-05T12:17:06.816Z,23.91
2023-05-05T12:19:33.920Z,23.91
2023-05-05T12:22:05.225Z,23.89
2023-05-05T12:24:31.912Z,23.90
2023-05-05T12:27:11.689Z,23.93
2023-05-05T12:29:38.366Z,23.95
2023-05-05T12:32:05.752Z,23.92
2023-05-05T12:34:32.960Z,23.90
2023-05-05T12:36:59.772Z,23.92
2023-05-05T12:39:38.658Z,23.93
2023-05-05T12:42:08.713Z,23.96
2023-05-05T12:44:46.683Z,23.98
2023-05-05T12:47:14.476Z,24.02
2023-05-05T12:49:47.014Z,24.05
2023-05-05T12:52:14.481Z,24.03
2023-05-05T12:54:58.655Z,24.03
2023-05-05T12:57:26.155Z,24.06
2023-05-05T12:59:53.450Z,24.03
2023-05-05T13:02:21.018Z,24.08
2023-05-05T13:04:52.949Z,24.09
2023-05-05T13:07:22.823Z,24.12
2023-05-05T13:09:50.343Z,24.11
2023-05-05T13:12:21.730Z,24.15
2023-05-05T13:14:49.356Z,24.13
2023-05-05T13:17:16.007Z,24.13
2023-05-05T13:19:46.058Z,24.13
2023-05-05T13:22:13.628Z,24.13
2023-05-05T13:24:50.651Z,24.14
2023-05-05T13:27:18.934Z,24.12
2023-05-05T13:29:48.574Z,24.07
2023-05-05T13:32:15.372Z,24.08
2023-05-05T13:34:43.613Z,24.07
2023-05-05T13:37:10.382Z,24.07
2023-05-05T13:39:37.134Z,24.11
2023-05-05T13:42:03.900Z,24.14
2023-05-05T13:44:30.519Z,24.13
2023-05-05T13:46:57.303Z,24.15
2023-05-05T13:49:24.024Z,24.15
2023-05-05T13:51:50.869Z,24.15
2023-05-05T13:54:17.570Z,24.13
2023-05-05T13:56:44.306Z,24.14
2023-05-05T13:59:10.984Z,24.14
2023-05-05T14:01:38.085Z,24.12
2023-05-05T14:04:05.934Z,24.04
2023-05-05T14:06:33.683Z,24.03
2023-05-05T14:09:00.629Z,24.06
2023-05-05T14:11:27.572Z,24.11
2023-05-05T14:13:54.215Z,24.17
2023-05-05T14:16:20.900Z,24.19
2023-05-05T14:18:50.674Z,24.17
2023-05-05T14:21:17.324Z,24.19
2023-05-05T14:23:46.776Z,24.21
2023-05-05T14:26:13.528Z,24.22
2023-05-05T14:28:40.169Z,24.22
2023-05-05T14:31:06.958Z,24.23
2023-05-05T14:33:33.569Z,24.21
2023-05-05T14:36:00.160Z,24.19
2023-05-05T14:38:26.832Z,24.14
2023-05-05T14:40:54.707Z,24.17
2023-05-05T14:43:21.948Z,24.12
2023-05-05T14:45:50.418Z,24.13
2023-05-05T14:48:17.683Z,24.14
2023-05-05T14:50:46.368Z,24.14
2023-05-05T14:53:12.987Z,24.13
2023-05-05T14:55:39.571Z,24.10
2023-05-05T14:58:06.350Z,24.09
2023-05-05T15:00:33.087Z,24.08
2023-05-05T15:02:59.816Z,24.08
2023-05-05T15:05:26.620Z,24.05
2023-05-05T15:07:53.192Z,24.08
2023-05-05T15:10:21.828Z,24.10
2023-05-05T15:12:48.918Z,24.09
2023-05-05T15:15:15.579Z,24.07
2023-05-05T15:17:43.211Z,24.09
2023-05-05T15:20:10.295Z,24.07
2023-05-05T15:22:36.957Z,24.08
2023-05-05T15:25:03.860Z,24.08
2023-05-05T15:27:31.717Z,24.09
2023-05-05T15:29:58.463Z,24.05
2023-05-05T15:32:25.224Z,24.08
2023-05-05T15:34:51.933Z,24.05
2023-05-05T15:37:18.565Z,24.03
2023-05-05T15:39:45.249Z,24.00
2023-05-05T15:42:11.949Z,23.99
2023-05-05T15:44:38.637Z,24.02
2023-05-05T15:47:06.489Z,24.01
2023-05-05T15:49:33.131Z,24.00
2023-05-05T15:51:59.809Z,23.96
2023-05-05T15:54:26.607Z,23.95
2023-05-05T15:56:53.264Z,23.93
2023-05-05T15:59:19.959Z,23.89
2023-05-05T16:01:47.330Z,23.89
2023-05-05T16:04:14.128Z,23.86
2023-05-05T16:06:40.966Z,23.84
2023-05-05T16:09:07.740Z,23.80
2023-05-05T16:11:34.475Z,23.78
2023-05-05T16:14:01.108Z,23.75
2023-05-05T16:16:27.774Z,23.72
2023-05-05T16:18:54.456Z,23.71
2023-05-05T16:21:21.079Z,23.71
2023-05-05T16:23:47.741Z,23.68
2023-05-05T16:26:14.412Z,23.64
2023-05-05T16:28:41.052Z,23.59
2023-05-05T16:31:10.730Z,23.58
2023-05-05T16:33:40.868Z,23.54
2023-05-05T16:36:12.587Z,23.54
2023-05-05T16:38:40.488Z,23.51
2023-05-05T16:41:07.765Z,23.44
2023-05-05T16:43:35.315Z,23.42
2023-05-05T16:46:02.110Z,23.36
2023-05-05T16:48:28.821Z,23.35
2023-05-05T16:50:59.018Z,23.27
2023-05-05T16:53:26.232Z,23.27
2023-05-05T16:55:53.780Z,23.17
2023-05-05T16:58:21.448Z,23.08
2023-05-05T17:00:51.927Z,22.95
2023-05-05T17:03:20.227Z,22.89
2023-05-05T17:05:50.013Z,22.82
2023-05-05T17:08:17.074Z,22.76
2023-05-05T17:10:45.125Z,22.68
2023-05-05T17:13:13.389Z,22.53
2023-05-05T17:15:40.632Z,22.48
2023-05-05T17:18:08.115Z,22.43
2023-05-05T17:20:36.404Z,22.43
2023-05-05T17:23:03.370Z,22.42
2023-05-05T17:25:29.956Z,22.38
2023-05-05T17:27:56.873Z,22.31
2023-05-05T17:30:23.537Z,22.24
2023-05-05T17:32:50.254Z,22.12
2023-05-05T17:35:16.975Z,22.02
2023-05-05T17:37:43.591Z,21.91
2023-05-05T17:40:10.500Z,21.82
2023-05-05T17:42:38.349Z,21.70
2023-05-05T17:45:08.813Z,21.64
2023-05-05T17:47:36.303Z,21.55
2023-05-05T17:50:03.342Z,21.44
2023-05-05T17:52:30.052Z,21.38
2023-05-05T17:54:57.002Z,21.26
2023-05-05T17:57:24.834Z,21.23
2023-05-05T17:59:53.580Z,21.15
2023-05-05T18:02:20.514Z,21.08
2023-05-05T18:04:47.427Z,21.03
2023-05-05T18:07:14.714Z,20.90
2023-05-05T18:09:41.457Z,20.88
2023-05-05T18:12:08.219Z,20.78
2023-05-05T18:14:34.910Z,20.67
2023-05-05T18:17:01.631Z,20.60
2023-05-05T18:19:28.416Z,20.52
2023-05-05T18:21:55.106Z,20.49
2023-05-05T18:24:21.714Z,20.40
2023-05-05T18:26:50.509Z,20.30
2023-05-05T18:29:18.591Z,20.23
2023-05-05T18:31:48.649Z,20.18
2023-05-05T18:34:16.831Z,20.09
2023-05-05T18:36:43.486Z,20.08
2023-05-05T18:39:10.295Z,20.04
2023-05-05T18:41:37.153Z,19.91
2023-05-05T18:44:03.947Z,19.85
2023-05-05T18:46:33.571Z,19.81
2023-05-05T18:49:00.705Z,19.71
2023-05-05T18:51:27.944Z,19.63
2023-05-05T18:53:54.990Z,19.55
2023-05-05T18:56:21.890Z,19.52
2023-05-05T18:58:48.928Z,19.40
2023-05-05T19:01:16.175Z,19.37
2023-05-05T19:03:47.827Z,19.35
2023-05-05T19:06:14.823Z,19.32
2023-05-05T19:08:42.128Z,19.27
2023-05-05T19:11:08.858Z,19.17
2023-05-05T19:13:35.432Z,19.15
2023-05-05T19:16:02.333Z,19.08
2023-05-05T19:18:28.984Z,19.06
2023-05-05T19:20:55.632Z,19.08
2023-05-05T19:23:22.739Z,19.03
2023-05-05T19:25:52.849Z,19.00
2023-05-05T19:28:19.673Z,18.97
2023-05-05T19:30:48.888Z,18.90
2023-05-05T19:33:16.277Z,18.88
2023-05-05T19:35:44.939Z,18.82
2023-05-05T19:38:12.048Z,18.78
2023-05-05T19:40:39.760Z,18.74
2023-05-05T19:43:06.425Z,18.70
2023-05-05T19:45:33.875Z,18.65
2023-05-05T19:48:01.683Z,18.57
2023-05-05T19:50:30.403Z,18.54
2023-05-05T19:52:57.818Z,18.51
2023-05-05T19:55:24.636Z,18.52
2023-05-05T19:57:51.507Z,18.51
2023-05-05T20:00:18.755Z,18.41
2023-05-05T20:02:45.884Z,18.37
2023-05-05T20:05:17.271Z,18.35
2023-05-05T20:07:46.921Z,18.29
2023-05-05T20:10:16.827Z,18.27
2023-05-05T20:12:48.471Z,18.26
2023-05-05T20:15:18.869Z,18.24
2023-05-05T20:17:49.489Z,18.18
2023-05-05T20:20:22.726Z,18.17
2023-05-05T20:22:49.858Z,18.14
2023-05-05T20:25:16.711Z,18.10
2023-05-05T20:27:43.547Z,18.06
2023-05-05T20:30:11.023Z,17.95
2023-05-05T20:32:38.379Z,17.91
2023-05-05T20:35:06.210Z,17.88
2023-05-05T20:37:33.175Z,17.85
2023-05-05T20:39:59.788Z,17.83
2023-05-05T20:42:27.859Z,17.79
2023-05-05T20:44:54.753Z,17.76
2023-05-05T20:47:21.446Z,17.66
2023-05-05T20:49:48.088Z,17.64
2023-05-05T20:52:14.702Z,17.61
2023-05-05T20:54:41.361Z,17.56
2023-05-05T20:57:07.997Z,17.51
2023-05-05T20:59:34.739Z,17.46
2023-05-05T21:02:04.185Z,17.41
2023-05-05T21:04:30.901Z,17.39
2023-05-05T21:06:57.570Z,17.37
2023-05-05T21:09:24.270Z,17.35
2023-05-05T21:11:51.028Z,17.32
2023-05-05T21:14:17.731Z,17.30
2023-05-05T21:16:44.446Z,17.22
2023-05-05T21:19:11.130Z,17.18
2023-05-05T21:21:37.693Z,17.23
2023-05-05T21:24:07.007Z,17.17
2023-05-05T21:26:34.438Z,17.12
2023-05-05T21:29:01.111Z,17.01
2023-05-05T21:31:27.806Z,16.99
2023-05-05T21:33:54.487Z,16.99
2023-05-05T21:36:21.393Z,16.93
2023-05-05T21:38:48.128Z,16.88
2023-05-05T21:41:14.823Z,16.79
2023-05-05T21:43:41.456Z,16.71
2023-05-05T21:46:08.795Z,16.68
2023-05-05T21:48:35.561Z,16.65
2023-05-05T21:51:02.212Z,16.62
2023-05-05T21:53:28.845Z,16.60
2023-05-05T21:55:55.484Z,16.55
2023-05-05T21:58:23.857Z,16.56
2023-05-05T22:00:50.943Z,16.58
2023-05-05T22:03:17.766Z,16.58
2023-05-05T22:05:44.564Z,16.56
2023-05-05T22:08:11.486Z,16.56
2023-05-05T22:10:39.244Z,16.50
2023-05-05T22:13:05.912Z,16.46
2023-05-05T22:15:42.621Z,16.42
2023-05-05T22:18:13.061Z,16.41
2023-05-05T22:20:40.627Z,16.39
2023-05-05T22:23:07.373Z,16.38
2023-05-05T22:25:33.956Z,16.32
2023-05-05T22:28:02.855Z,16.33
2023-05-05T22:30:29.449Z,16.25
2023-05-05T22:32:56.208Z,16.24
2023-05-05T22:35:22.877Z,16.24
2023-05-05T22:37:49.481Z,16.21
2023-05-05T22:40:16.224Z,16.13
2023-05-05T22:42:42.967Z,16.08
2023-05-05T22:45:10.404Z,16.00
2023-05-05T22:47:37.413Z,15.91
2023-05-05T22:50:04.251Z,15.87
2023-05-05T22:52:30.837Z,15.84
2023-05-05T22:54:57.458Z,15.84
2023-05-05T22:57:24.367Z,15.82
2023-05-05T22:59:51.165Z,15.81
2023-05-05T23:02:17.848Z,15.74
2023-05-05T23:04:45.135Z,15.71
2023-05-05T23:07:12.914Z,15.66
2023-05-05T23:09:39.664Z,15.64
2023-05-05T23:12:06.673Z,15.60
2023-05-05T23:14:33.279Z,15.59
2023-05-05T23:16:59.973Z,15.59
2023-05-05T23:19:27.160Z,15.58
2023-05-05T23:21:53.935Z,15.57
2023-05-05T23:24:21.871Z,15.49
2023-05-05T23:26:48.530Z,15.49
2023-05-05T23:29:15.114Z,15.43
2023-05-05T23:31:41.672Z,15.34
2023-05-05T23:34:08.607Z,15.39
2023-05-05T23:36:35.250Z,15.37
2023-05-05T23:39:01.850Z,15.26
2023-05-05T23:41:28.427Z,15.07
2023-05-05T23:43:55.069Z,15.07
2023-05-05T23:46:21.696Z,15.01
2023-05-05T23:48:49.728Z,15.03
2023-05-05T23:51:17.031Z,15.04
2023-05-05T23:53:43.867Z,15.05
2023-05-05T23:56:10.548Z,15.03
2023-05-05T23:58:37.090Z,15.00
